首页
METAR-TAF:

METAR-TAF

机场 :

烏拉爾, 哈萨克斯坦

纬度: 51-15N, 经度: 051-17E, 海拔: 36米

当前天气观测

该预报发布于1小时和6分钟前的20:00 UTC
风速8节,风向西转西南
温度 0°C
湿度 93%
气压 995 hPa
能见度10公里或以上
多云层高于3300英尺
阴天层高于6600英尺

METAR: UARR 222000Z 24004MPS 9999 BKN033 OVC066 00/M01 Q0995 R22/720245 NOSIG RMK QFE743/0990

时间: 02:06 (21:06 UTC)

预报

该预报发布于1小时和6分钟前的20:00 UTC
预报有效从22日的 21点(UTC)到 23日的 06点(UTC)
风速8节,风向西南
能見度: 3100
多云层高于1100英尺
小雪, 轻雾
短暂存在
从 23日的 00点(UTC)到 23日的 06点(UTC)
多云层高于500英尺

TAF: UARR 222000Z 2221/2306 23004MPS 3100 -SN BR BKN011 TEMPO 2300/2306 BKN005

超过4000个机场的气象观测和天气预报(METAR&TAF报告)。

可查询的气象台以黄色和红色小点在地图上表示。

将鼠标移到小点上方,可查看气象台名称。

然后点击查看天气观测和预报。

如需切换地图:点击带黑十字的绿色按钮放大地图;点击带横线的绿色按钮缩小地图;或者点击绿色箭头查看邻近地区的地图。


METAR-TAF: